Time;durP1;ratioP1;P1;durP2;ratioP2;P2;SDS_P1;SDS_P2;PMS_P1;PMS_P2;Temp;Humidity;BMP_temperature;BMP_pressure;BME280_temperature;BME280_humidity;BME280_pressure;Samples;Min_cycle;Max_cycle;Signal;HPM_P1;HPM_P2
2024/02/14 00:02:17;;;;;;;2.10;1.10;;;10.70;99.90;;;;;;5054343;28;20965;-58
2024/02/14 00:04:44;;;;;;;1.20;1.10;;;10.60;99.90;;;;;;5054143;28;20449;-58
2024/02/14 00:07:11;;;;;;;1.80;1.13;;;10.60;99.90;;;;;;5054619;28;20536;-57
2024/02/14 00:09:38;;;;;;;5.80;1.87;;;10.60;99.90;;;;;;5054324;28;20481;-57
2024/02/14 00:12:05;;;;;;;2.60;1.30;;;10.60;99.90;;;;;;5054480;28;20449;-57
2024/02/14 00:14:33;;;;;;;2.10;1.20;;;10.60;99.90;;;;;;5054378;28;20449;-57
2024/02/14 00:17:00;;;;;;;1.67;1.20;;;10.60;99.90;;;;;;5054192;28;20449;-57
2024/02/14 00:19:27;;;;;;;2.77;0.90;;;10.60;99.90;;;;;;5053928;28;20453;-57
2024/02/14 00:21:53;;;;;;;1.73;1.20;;;10.60;99.90;;;;;;5054311;28;20452;-57
2024/02/14 00:24:20;;;;;;;2.67;1.70;;;10.70;99.90;;;;;;5054059;28;20452;-57
2024/02/14 00:26:47;;;;;;;3.13;1.10;;;10.60;99.90;;;;;;5054123;28;20452;-57
2024/02/14 00:29:14;;;;;;;3.57;1.20;;;10.60;99.90;;;;;;5054028;28;20837;-57
2024/02/14 00:31:44;;;;;;;2.30;1.17;;;10.60;99.90;;;;;;5054110;28;20460;-57
2024/02/14 00:34:11;;;;;;;4.63;1.20;;;10.70;99.90;;;;;;5054187;28;20433;-56
2024/02/14 00:36:38;;;;;;;2.33;0.80;;;10.70;99.90;;;;;;5053566;28;20969;-56
2024/02/14 00:39:04;;;;;;;1.70;0.93;;;10.60;99.90;;;;;;5053496;28;20856;-56
2024/02/14 00:41:31;;;;;;;2.00;0.80;;;10.60;99.90;;;;;;5054001;28;20441;-56
2024/02/14 00:43:58;;;;;;;0.97;0.90;;;10.70;99.90;;;;;;5053892;28;20442;-56
2024/02/14 00:46:25;;;;;;;2.60;2.30;;;10.70;99.90;;;;;;5053914;28;20870;-56
2024/02/14 00:48:54;;;;;;;2.07;1.73;;;10.70;99.90;;;;;;5053686;28;20476;-56
2024/02/14 00:51:22;;;;;;;5.37;1.10;;;10.70;99.90;;;;;;5053362;28;20840;-56
2024/02/14 00:53:49;;;;;;;1.07;0.97;;;10.70;99.90;;;;;;5053289;28;20770;-56
2024/02/14 00:56:17;;;;;;;7.60;1.30;;;10.70;99.90;;;;;;5053214;28;20448;-56
2024/02/14 00:58:44;;;;;;;1.30;0.90;;;10.70;99.90;;;;;;5053131;28;20465;-56
2024/02/14 01:01:12;;;;;;;3.17;0.90;;;10.80;99.90;;;;;;5053374;28;20433;-56
2024/02/14 01:03:38;;;;;;;1.67;1.03;;;10.70;99.90;;;;;;5053552;28;20461;-56
2024/02/14 01:06:07;;;;;;;1.97;1.13;;;10.70;99.90;;;;;;5053438;28;20537;-56
2024/02/14 01:08:36;;;;;;;1.27;1.17;;;10.80;99.90;;;;;;5053318;28;20564;-56
2024/02/14 01:11:02;;;;;;;5.43;1.70;;;10.80;99.90;;;;;;5053229;28;20589;-56
2024/02/14 01:13:29;;;;;;;1.17;1.07;;;10.80;99.90;;;;;;5052946;28;20940;-56
2024/02/14 01:15:56;;;;;;;2.20;0.90;;;10.80;99.90;;;;;;5053435;28;20441;-56
2024/02/14 01:18:24;;;;;;;0.90;0.70;;;10.80;99.90;;;;;;5052948;28;20468;-56
2024/02/14 01:20:50;;;;;;;2.13;1.50;;;10.80;99.90;;;;;;5053009;28;20449;-56
2024/02/14 01:23:19;;;;;;;1.70;1.07;;;10.80;99.90;;;;;;5053291;28;20450;-56
2024/02/14 01:25:46;;;;;;;1.80;1.17;;;10.80;99.90;;;;;;5052944;28;20928;-56
2024/02/14 01:28:13;;;;;;;2.63;1.07;;;10.80;99.90;;;;;;5053591;28;20469;-56
2024/02/14 01:30:41;;;;;;;3.37;0.97;;;10.80;99.90;;;;;;5052743;28;20488;-56
2024/02/14 01:33:07;;;;;;;1.53;1.30;;;10.80;99.90;;;;;;5053138;28;20589;-56
2024/02/14 01:35:34;;;;;;;2.40;1.10;;;10.80;99.90;;;;;;5053145;28;20441;-56
2024/02/14 01:38:02;;;;;;;3.53;1.10;;;10.90;99.90;;;;;;5056800;28;20479;-56
2024/02/14 01:40:30;;;;;;;1.20;0.83;;;10.90;99.90;;;;;;5057440;28;20438;-56
2024/02/14 01:42:57;;;;;;;2.70;1.37;;;10.90;99.90;;;;;;5057405;28;20931;-56
2024/02/14 01:45:24;;;;;;;3.73;1.47;;;10.90;99.90;;;;;;5057755;28;20820;-56
2024/02/14 01:47:51;;;;;;;2.07;1.00;;;10.90;99.90;;;;;;5057588;28;20473;-56
2024/02/14 01:50:25;;;;;;;2.50;1.17;;;10.90;99.90;;;;;;5057422;28;20480;-56
2024/02/14 01:52:52;;;;;;;2.60;1.10;;;10.90;99.90;;;;;;5056697;28;20992;-56
2024/02/14 01:55:19;;;;;;;0.97;0.97;;;11.00;99.90;;;;;;5057098;28;20433;-56
2024/02/14 01:57:48;;;;;;;3.50;1.27;;;11.00;99.90;;;;;;5056958;28;20461;-56
2024/02/14 02:00:17;;;;;;;1.33;1.00;;;11.00;99.90;;;;;;5057143;28;20443;-56
2024/02/14 02:02:46;;;;;;;0.80;0.73;;;11.00;99.90;;;;;;5056492;28;20931;-56
2024/02/14 02:05:13;;;;;;;1.47;0.90;;;11.00;99.90;;;;;;5056452;28;21018;-56
2024/02/14 02:07:42;;;;;;;1.80;0.73;;;11.00;99.90;;;;;;5056991;28;20543;-56
2024/02/14 02:10:10;;;;;;;5.93;1.37;;;11.00;99.90;;;;;;5056891;28;20484;-56
2024/02/14 02:12:38;;;;;;;3.30;1.10;;;11.10;99.90;;;;;;5056911;28;20502;-56
2024/02/14 02:15:10;;;;;;;2.63;1.23;;;11.00;99.90;;;;;;5056444;28;20448;-56
2024/02/14 02:17:37;;;;;;;1.60;1.00;;;11.00;99.90;;;;;;5056209;28;21025;-56
2024/02/14 02:20:07;;;;;;;4.17;1.37;;;11.00;99.90;;;;;;5056440;28;20445;-56
2024/02/14 02:22:35;;;;;;;1.10;0.80;;;11.00;99.90;;;;;;5056739;28;20452;-56
2024/02/14 02:25:06;;;;;;;4.80;1.50;;;11.00;99.90;;;;;;5056138;28;20818;-56
2024/02/14 02:27:35;;;;;;;1.63;1.53;;;10.90;99.90;;;;;;5056144;28;20890;-56
2024/02/14 02:30:02;;;;;;;1.87;1.03;;;10.90;99.90;;;;;;5056380;28;20861;-56
2024/02/14 02:32:28;;;;;;;1.80;1.30;;;10.90;99.90;;;;;;5056428;28;20438;-56
2024/02/14 02:34:56;;;;;;;2.70;1.33;;;10.90;99.90;;;;;;5057229;28;20453;-56
2024/02/14 02:37:23;;;;;;;3.37;1.13;;;10.90;99.90;;;;;;5056401;28;20543;-56
2024/02/14 02:39:51;;;;;;;2.63;1.40;;;10.90;99.90;;;;;;5056467;28;20449;-56
2024/02/14 02:42:19;;;;;;;1.27;0.90;;;10.90;99.90;;;;;;5056353;28;20528;-56
2024/02/14 02:44:48;;;;;;;3.63;1.37;;;10.90;99.90;;;;;;5056350;28;20446;-56
2024/02/14 02:47:16;;;;;;;1.63;1.53;;;10.90;99.90;;;;;;5056381;28;20443;-56
2024/02/14 02:49:44;;;;;;;1.57;1.10;;;10.90;99.90;;;;;;5056102;28;20819;-56
2024/02/14 02:52:11;;;;;;;3.53;1.67;;;10.90;99.90;;;;;;5056030;28;20489;-56
2024/02/14 02:54:39;;;;;;;1.90;1.30;;;10.90;99.90;;;;;;5055653;28;20446;-56
2024/02/14 02:57:06;;;;;;;3.00;1.30;;;10.90;99.90;;;;;;5055808;28;20453;-57
2024/02/14 02:59:35;;;;;;;1.90;1.70;;;10.90;99.90;;;;;;5056070;28;20455;-56
2024/02/14 03:02:02;;;;;;;1.70;1.60;;;10.90;99.90;;;;;;5056317;28;20437;-56
2024/02/14 03:04:29;;;;;;;2.33;1.60;;;10.90;99.90;;;;;;5056199;28;20450;-56
2024/02/14 03:06:56;;;;;;;5.90;1.70;;;10.90;99.90;;;;;;5055873;28;20452;-56
2024/02/14 03:09:23;;;;;;;3.90;1.93;;;10.90;99.90;;;;;;5055657;28;20472;-57
2024/02/14 03:11:50;;;;;;;5.03;1.60;;;10.80;99.90;;;;;;5055913;28;20864;-56
2024/02/14 03:14:16;;;;;;;4.17;2.10;;;10.90;99.90;;;;;;5055453;28;20446;-56
2024/02/14 03:16:45;;;;;;;2.33;1.80;;;10.80;99.90;;;;;;5055523;28;20445;-56
2024/02/14 03:19:11;;;;;;;2.17;1.73;;;10.80;99.90;;;;;;5055353;28;20473;-56
2024/02/14 03:21:38;;;;;;;5.83;1.90;;;10.80;99.90;;;;;;5055460;28;20444;-56
2024/02/14 03:24:09;;;;;;;2.00;1.80;;;10.80;99.90;;;;;;5055155;28;20446;-56
2024/02/14 03:26:36;;;;;;;2.10;1.80;;;10.80;99.90;;;;;;5055391;28;20448;-57
2024/02/14 03:29:04;;;;;;;2.23;1.60;;;10.80;99.90;;;;;;5055235;28;20454;-56
2024/02/14 03:31:31;;;;;;;3.67;1.70;;;10.80;99.90;;;;;;5055281;28;21061;-56
2024/02/14 03:33:59;;;;;;;1.60;1.23;;;10.80;99.90;;;;;;5055142;28;20451;-56
2024/02/14 03:36:30;;;;;;;3.53;1.97;;;10.80;99.90;;;;;;5055158;28;20437;-56
2024/02/14 03:38:56;;;;;;;4.40;1.97;;;10.80;99.90;;;;;;5055031;28;20480;-56
2024/02/14 03:41:23;;;;;;;2.70;1.50;;;10.80;99.90;;;;;;5054918;28;20445;-56
2024/02/14 03:43:52;;;;;;;2.60;1.63;;;10.80;99.90;;;;;;5054982;28;20450;-56
2024/02/14 03:46:21;;;;;;;4.80;1.73;;;10.80;99.90;;;;;;5054966;28;20450;-56
2024/02/14 03:48:48;;;;;;;1.57;1.47;;;10.80;99.90;;;;;;5054766;28;20553;-56
2024/02/14 03:51:17;;;;;;;5.00;1.80;;;10.90;99.90;;;;;;5054620;28;20486;-56
2024/02/14 03:53:44;;;;;;;3.93;1.67;;;10.90;99.90;;;;;;5054500;28;20476;-56
2024/02/14 03:56:12;;;;;;;2.67;1.77;;;10.80;99.90;;;;;;5054402;28;20823;-56
2024/02/14 03:58:39;;;;;;;3.27;2.13;;;10.90;99.90;;;;;;5054035;28;20466;-56
2024/02/14 04:01:06;;;;;;;4.67;1.73;;;10.80;99.90;;;;;;5054610;28;20808;-56
2024/02/14 04:03:33;;;;;;;2.30;2.10;;;10.80;99.90;;;;;;5054577;28;20448;-56
2024/02/14 04:06:00;;;;;;;1.87;1.77;;;10.80;99.90;;;;;;5054538;28;20446;-56
2024/02/14 04:08:29;;;;;;;1.87;1.77;;;10.80;99.90;;;;;;5054415;28;20462;-56
2024/02/14 04:10:56;;;;;;;2.20;2.00;;;10.80;99.90;;;;;;5053973;28;20888;-56
2024/02/14 04:13:23;;;;;;;4.60;2.07;;;10.80;99.90;;;;;;5054473;28;20545;-56
2024/02/14 04:15:50;;;;;;;2.47;2.20;;;10.80;99.90;;;;;;5054333;28;20530;-56
2024/02/14 04:18:17;;;;;;;3.07;2.23;;;10.80;99.90;;;;;;5054328;28;20536;-56
2024/02/14 04:20:44;;;;;;;2.33;1.80;;;10.80;99.90;;;;;;5054305;28;20452;-56
2024/02/14 04:23:11;;;;;;;3.47;2.43;;;10.80;99.90;;;;;;5054244;28;20492;-56
2024/02/14 04:25:40;;;;;;;3.73;2.43;;;10.90;99.90;;;;;;5054224;28;20450;-56
2024/02/14 04:28:07;;;;;;;3.30;2.03;;;10.90;99.90;;;;;;5053778;28;20456;-56
2024/02/14 04:30:35;;;;;;;6.30;2.40;;;10.90;99.90;;;;;;5053588;28;20944;-56
2024/02/14 04:33:02;;;;;;;2.80;1.80;;;10.90;99.90;;;;;;5054105;28;20481;-56
2024/02/14 04:35:29;;;;;;;1.93;1.60;;;10.90;99.90;;;;;;5053965;28;20468;-56
2024/02/14 04:37:56;;;;;;;3.03;1.80;;;10.90;99.90;;;;;;5053981;28;20474;-56
2024/02/14 04:40:23;;;;;;;2.40;2.20;;;10.90;99.90;;;;;;5053890;28;20485;-56
2024/02/14 04:42:52;;;;;;;3.57;1.73;;;10.90;99.90;;;;;;5053891;28;20437;-56
2024/02/14 04:45:19;;;;;;;5.33;2.00;;;10.90;99.90;;;;;;5053889;28;20461;-56
2024/02/14 04:47:45;;;;;;;2.90;1.70;;;10.90;99.90;;;;;;5053734;28;20469;-56
2024/02/14 04:50:13;;;;;;;1.47;1.37;;;10.90;99.90;;;;;;5053775;28;20440;-56
2024/02/14 04:52:40;;;;;;;2.87;1.87;;;10.90;99.90;;;;;;5053401;28;20531;-56
2024/02/14 04:55:08;;;;;;;3.80;2.10;;;10.90;99.90;;;;;;5053475;28;20842;-56
2024/02/14 04:57:36;;;;;;;2.50;1.80;;;11.00;99.90;;;;;;5053935;28;20461;-56
2024/02/14 05:00:08;;;;;;;2.10;1.93;;;10.90;99.90;;;;;;5054118;28;20449;-56
2024/02/14 05:02:36;;;;;;;1.80;1.70;;;10.90;99.90;;;;;;5053862;28;20919;-57
2024/02/14 05:05:03;;;;;;;2.93;1.97;;;10.90;99.90;;;;;;5053740;28;20449;-57
2024/02/14 05:07:29;;;;;;;2.80;1.93;;;10.90;99.90;;;;;;5053750;28;20465;-58
2024/02/14 05:09:56;;;;;;;1.83;1.73;;;10.90;99.90;;;;;;5054043;28;20445;-58
2024/02/14 05:12:23;;;;;;;6.80;2.20;;;10.90;99.90;;;;;;5052664;28;20572;-57
2024/02/14 05:14:50;;;;;;;2.27;2.03;;;10.90;99.90;;;;;;5053546;28;20438;-57
2024/02/14 05:17:18;;;;;;;2.30;1.83;;;10.90;99.90;;;;;;5053327;28;20433;-57
2024/02/14 05:19:45;;;;;;;3.50;2.40;;;10.90;99.90;;;;;;5053396;28;20524;-57
2024/02/14 05:22:12;;;;;;;2.00;1.87;;;10.90;99.90;;;;;;5053274;28;20442;-57
2024/02/14 05:24:39;;;;;;;3.33;2.53;;;10.80;99.90;;;;;;5053337;28;20446;-57
2024/02/14 05:27:06;;;;;;;3.73;2.20;;;10.80;99.90;;;;;;5053196;28;20830;-57
2024/02/14 05:29:33;;;;;;;4.43;1.80;;;10.80;99.90;;;;;;5052964;28;20448;-57
2024/02/14 05:32:00;;;;;;;2.33;2.10;;;10.80;99.90;;;;;;5052875;28;20928;-57
2024/02/14 05:34:29;;;;;;;2.70;2.30;;;10.80;99.90;;;;;;5053025;28;20454;-57
2024/02/14 05:36:56;;;;;;;5.30;2.50;;;10.90;99.90;;;;;;5052534;28;20445;-57
2024/02/14 05:39:22;;;;;;;3.93;2.17;;;10.80;99.90;;;;;;5052726;28;20465;-57
2024/02/14 05:41:50;;;;;;;2.60;2.40;;;10.80;99.90;;;;;;5052807;28;20536;-57
2024/02/14 05:44:16;;;;;;;7.07;2.97;;;10.80;99.90;;;;;;5052557;28;20824;-57
2024/02/14 05:46:43;;;;;;;3.07;2.40;;;10.80;99.90;;;;;;5052805;28;20536;-57
2024/02/14 05:49:10;;;;;;;6.60;3.27;;;10.80;99.90;;;;;;5052691;28;20472;-57
2024/02/14 05:51:38;;;;;;;2.27;2.07;;;10.80;99.90;;;;;;5052655;28;20586;-57
2024/02/14 05:54:06;;;;;;;3.73;2.40;;;10.80;99.90;;;;;;5052325;28;20959;-56
2024/02/14 05:56:32;;;;;;;4.60;2.40;;;10.80;99.90;;;;;;5052758;28;20540;-57
2024/02/14 05:58:59;;;;;;;3.00;2.10;;;10.80;99.90;;;;;;5052899;28;20461;-56
2024/02/14 06:01:26;;;;;;;2.57;2.33;;;10.80;99.90;;;;;;5052864;28;20450;-56
2024/02/14 06:03:53;;;;;;;2.97;2.77;;;10.80;99.90;;;;;;5052918;28;20461;-57
2024/02/14 06:06:20;;;;;;;3.37;2.60;;;10.80;99.90;;;;;;5052910;28;20445;-57
2024/02/14 06:08:48;;;;;;;4.67;2.30;;;10.80;99.90;;;;;;5052809;28;20531;-56
2024/02/14 06:11:16;;;;;;;3.07;2.50;;;10.80;99.90;;;;;;5052673;28;20493;-56
2024/02/14 06:13:43;;;;;;;5.00;2.70;;;10.80;99.90;;;;;;5052776;28;20445;-56
2024/02/14 06:16:11;;;;;;;3.33;2.50;;;10.80;99.90;;;;;;5052466;28;20499;-56
2024/02/14 06:18:39;;;;;;;2.33;2.10;;;10.80;99.90;;;;;;5052297;28;20473;-57
2024/02/14 06:21:06;;;;;;;2.30;2.00;;;10.80;99.90;;;;;;5052270;28;20441;-57
2024/02/14 06:23:33;;;;;;;2.97;2.50;;;10.90;99.90;;;;;;5055578;28;20444;-57
2024/02/14 06:26:01;;;;;;;2.70;1.80;;;10.90;99.90;;;;;;5056040;28;20540;-57
2024/02/14 06:28:27;;;;;;;3.80;2.27;;;10.90;99.90;;;;;;5056123;28;20461;-57
2024/02/14 06:30:55;;;;;;;3.37;2.03;;;10.90;99.90;;;;;;5056198;28;20441;-57
2024/02/14 06:33:22;;;;;;;4.07;2.40;;;10.90;99.90;;;;;;5056220;28;20539;-57
2024/02/14 06:35:49;;;;;;;3.73;2.33;;;10.90;99.90;;;;;;5056295;28;20442;-57
2024/02/14 06:38:16;;;;;;;5.30;2.33;;;10.90;99.90;;;;;;5056067;28;20904;-57
2024/02/14 06:40:43;;;;;;;7.40;2.10;;;11.00;99.90;;;;;;5056148;28;20457;-57
2024/02/14 06:43:12;;;;;;;4.00;2.03;;;10.90;99.90;;;;;;5056302;28;20441;-56
2024/02/14 06:45:39;;;;;;;4.77;2.40;;;10.90;99.90;;;;;;5055839;28;21009;-57
2024/02/14 06:48:09;;;;;;;2.03;1.80;;;10.90;99.90;;;;;;5055939;28;20501;-57
2024/02/14 06:50:36;;;;;;;5.63;2.30;;;11.00;99.90;;;;;;5055852;28;20457;-57
2024/02/14 06:53:02;;;;;;;4.00;2.10;;;11.00;99.90;;;;;;5055213;28;21081;-57
2024/02/14 06:55:31;;;;;;;3.90;2.70;;;11.00;99.90;;;;;;5055915;28;20426;-56
2024/02/14 06:57:58;;;;;;;4.47;2.30;;;11.00;99.90;;;;;;5055388;28;20844;-57
2024/02/14 07:00:28;;;;;;;3.70;2.00;;;11.00;99.90;;;;;;5055758;28;20445;-56
2024/02/14 07:02:54;;;;;;;4.17;2.67;;;11.10;99.90;;;;;;5055793;28;20525;-56
2024/02/14 07:05:21;;;;;;;3.73;2.20;;;11.00;99.90;;;;;;5055322;28;20935;-56
2024/02/14 07:07:48;;;;;;;4.97;2.43;;;11.10;99.90;;;;;;5055639;28;20469;-56
2024/02/14 07:10:15;;;;;;;2.20;2.00;;;11.10;99.90;;;;;;5055542;28;20897;-56
2024/02/14 07:12:41;;;;;;;3.33;2.00;;;11.10;99.90;;;;;;5055531;28;20486;-56
2024/02/14 07:15:09;;;;;;;5.47;2.10;;;11.10;99.90;;;;;;5055575;28;20445;-56
2024/02/14 07:17:38;;;;;;;3.10;2.40;;;11.20;99.90;;;;;;5055373;28;20462;-56
2024/02/14 07:20:08;;;;;;;2.83;2.07;;;11.20;99.90;;;;;;5055099;28;20550;-56
2024/02/14 07:22:35;;;;;;;3.63;1.87;;;11.20;99.90;;;;;;5054998;28;20905;-56
2024/02/14 07:25:02;;;;;;;2.07;1.87;;;11.20;99.90;;;;;;5055212;28;20535;-56
2024/02/14 07:27:29;;;;;;;2.50;2.30;;;11.20;99.90;;;;;;5054887;28;22171;-56
2024/02/14 07:29:55;;;;;;;2.53;1.97;;;11.20;99.90;;;;;;5055031;28;20445;-56
2024/02/14 07:32:22;;;;;;;5.20;2.13;;;11.20;99.90;;;;;;5055100;28;20489;-56
2024/02/14 07:34:51;;;;;;;2.20;1.93;;;11.30;99.90;;;;;;5054189;28;20816;-56
2024/02/14 07:37:19;;;;;;;4.17;2.13;;;11.30;99.90;;;;;;5054796;28;20460;-56
2024/02/14 07:39:47;;;;;;;8.83;2.17;;;11.40;99.90;;;;;;5054979;28;20464;-56
2024/02/14 07:42:14;;;;;;;3.03;1.97;;;11.40;99.90;;;;;;5054580;28;20450;-56
2024/02/14 07:44:41;;;;;;;2.10;2.00;;;11.40;99.90;;;;;;5054826;28;20452;-56
2024/02/14 07:47:07;;;;;;;1.63;1.53;;;11.50;99.90;;;;;;5054803;28;20448;-56
2024/02/14 07:49:34;;;;;;;3.30;2.27;;;11.50;99.90;;;;;;5054744;28;20442;-56
2024/02/14 07:52:02;;;;;;;4.90;1.90;;;11.50;99.90;;;;;;5054194;28;20484;-56
2024/02/14 07:54:29;;;;;;;3.47;2.17;;;11.50;99.90;;;;;;5054227;28;20457;-56
2024/02/14 07:56:56;;;;;;;6.40;1.67;;;11.60;99.90;;;;;;5054625;28;20442;-56
2024/02/14 07:59:23;;;;;;;2.63;1.50;;;11.60;99.90;;;;;;5054569;28;20461;-56
2024/02/14 08:01:50;;;;;;;5.90;2.00;;;11.60;99.90;;;;;;5054595;28;20444;-56
2024/02/14 08:04:17;;;;;;;4.17;2.17;;;11.60;99.90;;;;;;5054469;28;20441;-56
2024/02/14 08:06:46;;;;;;;3.07;1.70;;;11.70;99.90;;;;;;5054122;28;20896;-56
2024/02/14 08:09:14;;;;;;;3.20;1.90;;;11.70;99.90;;;;;;5054285;28;20468;-56
2024/02/14 08:11:41;;;;;;;4.77;1.90;;;11.80;99.90;;;;;;5054269;28;20449;-56
2024/02/14 08:14:08;;;;;;;6.20;2.23;;;11.80;99.90;;;;;;5054261;28;20940;-56
2024/02/14 08:16:36;;;;;;;2.83;1.90;;;11.90;99.90;;;;;;5054553;28;20510;-55
2024/02/14 08:19:03;;;;;;;8.00;2.10;;;11.90;99.90;;;;;;5054402;28;20461;-56
2024/02/14 08:21:30;;;;;;;3.67;2.00;;;12.00;99.90;;;;;;5053820;28;20455;-57
2024/02/14 08:23:58;;;;;;;8.37;2.60;;;12.10;99.90;;;;;;5053969;28;20468;-56
2024/02/14 08:26:26;;;;;;;3.30;1.77;;;12.20;99.90;;;;;;5054652;28;20458;-56
2024/02/14 08:28:53;;;;;;;3.53;1.63;;;12.30;99.90;;;;;;5054000;28;20466;-56
2024/02/14 08:31:21;;;;;;;4.70;1.60;;;12.30;99.90;;;;;;5053933;28;20445;-56
2024/02/14 08:33:48;;;;;;;4.43;2.20;;;12.40;99.90;;;;;;5053728;28;20485;-56
2024/02/14 08:36:16;;;;;;;4.80;2.50;;;12.40;99.90;;;;;;5053972;28;20442;-56
2024/02/14 08:38:43;;;;;;;7.47;1.80;;;12.40;99.90;;;;;;5053684;28;20481;-56
2024/02/14 08:41:10;;;;;;;5.50;1.60;;;12.50;99.90;;;;;;5053587;28;20452;-56
2024/02/14 08:43:38;;;;;;;5.17;1.87;;;12.50;99.90;;;;;;5053683;28;20446;-56
2024/02/14 08:46:10;;;;;;;9.90;2.03;;;12.60;99.90;;;;;;5053493;28;20450;-56
2024/02/14 08:48:41;;;;;;;2.83;1.90;;;12.60;99.90;;;;;;5053586;28;20461;-56
2024/02/14 08:51:09;;;;;;;4.43;1.53;;;12.70;99.90;;;;;;5053550;28;20441;-56
2024/02/14 08:53:35;;;;;;;6.93;1.90;;;12.80;99.90;;;;;;5053118;28;20485;-56
2024/02/14 08:56:02;;;;;;;4.27;1.60;;;12.80;99.90;;;;;;5053511;28;20444;-56
2024/02/14 08:58:29;;;;;;;2.70;1.50;;;12.90;99.90;;;;;;5053426;28;20488;-56
2024/02/14 09:00:57;;;;;;;3.43;1.77;;;12.90;99.90;;;;;;5053397;28;20452;-56
2024/02/14 09:03:24;;;;;;;2.93;1.77;;;13.00;99.90;;;;;;5053300;28;20448;-56
2024/02/14 09:05:52;;;;;;;2.63;1.43;;;13.10;99.90;;;;;;5053259;28;20528;-56
2024/02/14 09:08:20;;;;;;;3.30;1.40;;;13.10;99.90;;;;;;5053216;28;20470;-56
2024/02/14 09:10:48;;;;;;;3.40;1.60;;;13.20;99.90;;;;;;5052790;28;21009;-56
2024/02/14 09:13:15;;;;;;;6.03;1.67;;;13.30;99.90;;;;;;5052997;28;20477;-56
2024/02/14 09:15:41;;;;;;;3.37;1.50;;;13.50;99.90;;;;;;5053153;28;20449;-56
2024/02/14 09:18:09;;;;;;;7.73;3.13;;;13.60;99.90;;;;;;5053066;28;20509;-56
2024/02/14 09:20:37;;;;;;;3.80;1.50;;;13.70;99.90;;;;;;5053064;28;20445;-56
2024/02/14 09:23:04;;;;;;;4.67;1.70;;;13.70;99.90;;;;;;5053188;28;20441;-56
2024/02/14 09:25:31;;;;;;;5.00;2.03;;;13.80;99.90;;;;;;5052742;28;20442;-56
2024/02/14 09:27:58;;;;;;;7.13;1.97;;;13.80;99.90;;;;;;5052977;28;20834;-56
2024/02/14 09:30:25;;;;;;;5.30;1.80;;;13.80;99.90;;;;;;5052923;28;20535;-56
2024/02/14 09:32:51;;;;;;;6.57;2.10;;;13.90;99.90;;;;;;5052714;28;20579;-56
2024/02/14 09:35:20;;;;;;;5.07;2.23;;;14.00;99.90;;;;;;5052607;28;20478;-56
2024/02/14 09:37:46;;;;;;;9.57;2.23;;;14.00;99.90;;;;;;5052985;28;20465;-56
2024/02/14 09:40:14;;;;;;;4.90;1.70;;;14.00;99.90;;;;;;5054971;28;20446;-56
2024/02/14 09:42:46;;;;;;;3.67;1.20;;;14.00;99.90;;;;;;5072985;28;20452;-56
2024/02/14 09:45:13;;;;;;;3.87;1.90;;;14.00;99.90;;;;;;5073042;28;20427;-56
2024/02/14 09:47:41;;;;;;;6.87;1.77;;;14.00;99.90;;;;;;5072908;28;20461;-56
2024/02/14 09:50:10;;;;;;;7.60;1.67;;;14.00;99.90;;;;;;5072978;28;20444;-56
2024/02/14 09:52:39;;;;;;;5.90;1.77;;;13.90;99.90;;;;;;5072674;28;20490;-56
2024/02/14 09:55:07;;;;;;;4.90;1.50;;;13.90;99.90;;;;;;5072567;28;20457;-56
2024/02/14 09:57:35;;;;;;;4.33;1.30;;;13.90;99.90;;;;;;5074256;28;20467;-56
2024/02/14 10:00:03;;;;;;;4.10;1.40;;;13.80;99.90;;;;;;5077065;28;20792;-56
2024/02/14 10:02:31;;;;;;;4.73;1.13;;;13.80;99.90;;;;;;5077012;28;20463;-56
2024/02/14 10:04:58;;;;;;;3.00;1.33;;;13.80;99.90;;;;;;5076870;28;20444;-56
2024/02/14 10:07:24;;;;;;;6.57;1.43;;;13.80;99.90;;;;;;5076556;28;20446;-56
2024/02/14 10:09:53;;;;;;;5.00;1.50;;;13.80;99.90;;;;;;5076698;28;20470;-56
2024/02/14 10:12:20;;;;;;;5.40;1.20;;;13.80;99.90;;;;;;5075084;28;20974;-56
2024/02/14 10:14:47;;;;;;;5.13;1.50;;;13.80;99.90;;;;;;5076699;28;20451;-56
2024/02/14 10:17:19;;;;;;;5.00;1.30;;;13.80;99.90;;;;;;5076265;28;20502;-57
2024/02/14 10:19:56;;;;;;;3.10;1.43;;;13.90;99.90;;;;;;5076687;28;20447;-56
2024/02/14 10:22:23;;;;;;;2.60;1.03;;;13.90;99.90;;;;;;5076505;28;20428;-56
2024/02/14 10:24:50;;;;;;;2.50;1.33;;;13.90;99.90;;;;;;5076290;28;20450;-56
2024/02/14 10:27:18;;;;;;;6.20;1.37;;;13.90;99.90;;;;;;5076242;28;20450;-57
2024/02/14 10:29:45;;;;;;;2.50;1.07;;;13.90;99.90;;;;;;5077070;28;20441;-56
2024/02/14 10:32:15;;;;;;;2.70;1.77;;;13.90;99.90;;;;;;5076363;28;20444;-59
2024/02/14 10:34:45;;;;;;;3.67;0.90;;;13.90;99.90;;;;;;5076466;28;20421;-56
2024/02/14 10:37:16;;;;;;;3.07;1.20;;;13.90;99.90;;;;;;5076290;28;20534;-57
2024/02/14 10:39:44;;;;;;;4.87;1.20;;;13.80;99.90;;;;;;5076626;28;20443;-57
2024/02/14 10:42:11;;;;;;;2.20;1.13;;;13.70;99.90;;;;;;5076676;28;20532;-57
2024/02/14 10:44:39;;;;;;;2.20;1.30;;;13.70;99.90;;;;;;5076137;28;20440;-57
2024/02/14 10:47:10;;;;;;;4.47;1.30;;;13.70;99.90;;;;;;5076136;28;20528;-57
2024/02/14 10:49:39;;;;;;;3.77;1.30;;;13.70;99.90;;;;;;5076067;28;20447;-57
2024/02/14 10:52:07;;;;;;;3.07;0.93;;;13.70;99.90;;;;;;5075546;28;20448;-57
2024/02/14 10:54:36;;;;;;;5.70;1.00;;;13.80;99.90;;;;;;5075593;28;20488;-57
2024/02/14 10:57:07;;;;;;;1.70;1.07;;;13.80;99.90;;;;;;5075707;28;20760;-56
2024/02/14 10:59:35;;;;;;;2.47;1.07;;;13.80;99.90;;;;;;5075723;28;20461;-56
2024/02/14 11:02:04;;;;;;;4.33;1.47;;;13.80;99.90;;;;;;5075775;28;20440;-56
2024/02/14 11:04:31;;;;;;;3.00;1.03;;;13.70;99.90;;;;;;5075360;28;20448;-56
2024/02/14 11:07:02;;;;;;;3.90;1.17;;;13.80;99.90;;;;;;5075674;28;20447;-56
2024/02/14 11:09:33;;;;;;;2.93;0.93;;;14.00;99.90;;;;;;5074200;28;20467;-56
2024/02/14 11:12:02;;;;;;;3.67;1.60;;;14.10;99.90;;;;;;5075420;28;20432;-56
2024/02/14 11:14:32;;;;;;;2.17;1.03;;;14.20;99.90;;;;;;5075322;28;20534;-57
2024/02/14 11:17:00;;;;;;;5.50;2.60;;;14.40;99.90;;;;;;5075428;28;20436;-56
2024/02/14 11:19:35;;;;;;;5.90;1.33;;;14.60;99.90;;;;;;5075707;28;20472;-56
2024/02/14 11:22:11;;;;;;;3.80;0.97;;;14.80;99.90;;;;;;5075950;28;20478;-55
2024/02/14 11:24:38;;;;;;;2.17;0.77;;;14.90;99.90;;;;;;5075202;28;20812;-56
2024/02/14 11:27:10;;;;;;;1.73;1.50;;;14.90;99.90;;;;;;5075561;28;20476;-56
2024/02/14 11:29:39;;;;;;;2.33;1.30;;;14.90;99.90;;;;;;5075111;28;20425;-56
2024/02/14 11:32:08;;;;;;;2.57;0.90;;;14.90;99.90;;;;;;5074867;28;20455;-58
2024/02/14 11:34:36;;;;;;;2.00;1.07;;;15.00;99.90;;;;;;5075143;28;20491;-57
2024/02/14 11:37:04;;;;;;;2.53;1.10;;;14.90;99.90;;;;;;5075118;28;20441;-55
2024/02/14 11:39:33;;;;;;;4.80;1.80;;;14.90;99.90;;;;;;5074752;28;20482;-55
2024/02/14 11:42:00;;;;;;;4.27;0.97;;;14.90;99.90;;;;;;5075067;28;20453;-55
2024/02/14 11:44:27;;;;;;;2.03;0.90;;;14.80;99.90;;;;;;5074658;28;20441;-55
2024/02/14 11:46:53;;;;;;;1.37;0.87;;;14.70;99.90;;;;;;5074942;28;20447;-55
2024/02/14 11:49:20;;;;;;;2.30;1.10;;;14.50;99.90;;;;;;5074826;28;20551;-55
2024/02/14 11:51:49;;;;;;;1.07;0.80;;;14.50;99.90;;;;;;5074356;28;20996;-55
2024/02/14 11:54:16;;;;;;;5.93;1.60;;;14.50;99.90;;;;;;5074362;28;20491;-55
2024/02/14 11:56:42;;;;;;;1.63;1.20;;;14.40;99.90;;;;;;5075015;28;20821;-56
2024/02/14 11:59:10;;;;;;;3.23;1.00;;;14.40;99.90;;;;;;5074834;28;20468;-58
2024/02/14 12:01:39;;;;;;;1.83;0.97;;;14.40;99.90;;;;;;5074817;28;20445;-58
2024/02/14 12:04:08;;;;;;;3.33;0.90;;;14.40;99.90;;;;;;5074783;28;20957;-58
2024/02/14 12:06:35;;;;;;;2.53;1.13;;;14.40;99.90;;;;;;5074471;28;20471;-59
2024/02/14 12:09:05;;;;;;;5.60;0.97;;;14.50;99.90;;;;;;5074655;28;20471;-58
2024/02/14 12:11:32;;;;;;;4.90;1.50;;;14.40;99.90;;;;;;5074215;28;20448;-58
2024/02/14 12:14:03;;;;;;;2.40;1.20;;;14.40;99.90;;;;;;5074272;28;20550;-58
2024/02/14 12:16:31;;;;;;;2.70;1.20;;;14.40;99.90;;;;;;5074487;28;20451;-58
2024/02/14 12:19:08;;;;;;;3.93;1.47;;;14.30;99.90;;;;;;5074189;28;20468;-58
2024/02/14 12:21:35;;;;;;;2.93;1.00;;;14.30;99.90;;;;;;5073938;28;20467;-58
2024/02/14 12:24:05;;;;;;;5.33;1.17;;;14.30;99.90;;;;;;5073890;28;20455;-58
2024/02/14 12:26:32;;;;;;;2.30;1.20;;;14.20;99.90;;;;;;5074140;28;20437;-58
2024/02/14 12:28:59;;;;;;;2.83;1.13;;;14.20;99.90;;;;;;5074064;28;20510;-58
2024/02/14 12:31:26;;;;;;;2.03;1.00;;;14.30;99.90;;;;;;5073976;28;20531;-58
2024/02/14 12:33:55;;;;;;;2.77;1.10;;;14.30;99.90;;;;;;5073763;28;20480;-57
2024/02/14 12:36:22;;;;;;;2.50;1.30;;;14.40;99.90;;;;;;5073808;28;20445;-57
2024/02/14 12:38:49;;;;;;;7.20;1.60;;;14.40;99.90;;;;;;5073876;28;20464;-57
2024/02/14 12:41:17;;;;;;;3.33;1.27;;;14.40;99.90;;;;;;5073490;28;20938;-57
2024/02/14 12:43:44;;;;;;;7.20;1.53;;;14.40;99.90;;;;;;5073727;28;20439;-57
2024/02/14 12:46:11;;;;;;;4.60;2.50;;;14.40;99.90;;;;;;5073407;28;21033;-58
2024/02/14 12:48:38;;;;;;;3.17;1.80;;;14.40;99.90;;;;;;5073635;28;20467;-57
2024/02/14 12:51:05;;;;;;;5.30;1.30;;;14.50;99.90;;;;;;5073530;28;20441;-57